sensor_id;sensor_type;location;lat;lon;timestamp;temperature;humidity
4922;DHT22;16625;53.624;10.106;2023-02-28T00:01:08;2.50;99.90
4922;DHT22;16625;53.624;10.106;2023-02-28T00:03:35;2.50;99.90
4922;DHT22;16625;53.624;10.106;2023-02-28T00:06:05;2.40;99.90
4922;DHT22;16625;53.624;10.106;2023-02-28T00:08:33;2.20;99.90
4922;DHT22;16625;53.624;10.106;2023-02-28T00:11:01;2.40;99.90
4922;DHT22;16625;53.624;10.106;2023-02-28T00:13:29;1.90;99.90
4922;DHT22;16625;53.624;10.106;2023-02-28T00:16:00;1.90;99.90
4922;DHT22;16625;53.624;10.106;2023-02-28T00:18:30;1.70;99.90
4922;DHT22;16625;53.624;10.106;2023-02-28T00:20:57;1.60;99.90
4922;DHT22;16625;53.624;10.106;2023-02-28T00:23:25;1.50;1.00
4922;DHT22;16625;53.624;10.106;2023-02-28T00:25:52;1.40;1.00
4922;DHT22;16625;53.624;10.106;2023-02-28T00:28:20;1.50;1.00
4922;DHT22;16625;53.624;10.106;2023-02-28T00:30:49;1.50;1.00
4922;DHT22;16625;53.624;10.106;2023-02-28T00:33:16;1.50;1.00
4922;DHT22;16625;53.624;10.106;2023-02-28T00:35:43;1.60;1.00
4922;DHT22;16625;53.624;10.106;2023-02-28T00:38:11;1.60;1.00
4922;DHT22;16625;53.624;10.106;2023-02-28T00:40:40;1.50;1.00
4922;DHT22;16625;53.624;10.106;2023-02-28T00:43:07;1.50;1.00
4922;DHT22;16625;53.624;10.106;2023-02-28T00:45:34;1.60;1.00
4922;DHT22;16625;53.624;10.106;2023-02-28T00:48:01;1.80;1.00
4922;DHT22;16625;53.624;10.106;2023-02-28T00:50:28;2.00;1.00
4922;DHT22;16625;53.624;10.106;2023-02-28T00:52:55;1.70;1.00
4922;DHT22;16625;53.624;10.106;2023-02-28T00:55:22;1.90;1.00
4922;DHT22;16625;53.624;10.106;2023-02-28T00:57:50;1.80;1.00
4922;DHT22;16625;53.624;10.106;2023-02-28T01:00:17;2.00;1.00
4922;DHT22;16625;53.624;10.106;2023-02-28T01:02:44;2.00;1.00
4922;DHT22;16625;53.624;10.106;2023-02-28T01:05:13;2.20;1.00
4922;DHT22;16625;53.624;10.106;2023-02-28T01:07:39;2.00;1.00
4922;DHT22;16625;53.624;10.106;2023-02-28T01:10:12;2.00;1.00
4922;DHT22;16625;53.624;10.106;2023-02-28T01:12:39;1.80;1.00
4922;DHT22;16625;53.624;10.106;2023-02-28T01:15:10;2.00;1.00
4922;DHT22;16625;53.624;10.106;2023-02-28T01:17:37;1.80;1.00
4922;DHT22;16625;53.624;10.106;2023-02-28T01:20:05;1.70;1.00
4922;DHT22;16625;53.624;10.106;2023-02-28T01:22:34;1.50;1.00
4922;DHT22;16625;53.624;10.106;2023-02-28T01:25:01;1.40;99.90
4922;DHT22;16625;53.624;10.106;2023-02-28T01:27:28;1.40;99.90
4922;DHT22;16625;53.624;10.106;2023-02-28T01:29:55;1.30;99.90
4922;DHT22;16625;53.624;10.106;2023-02-28T01:32:23;1.30;99.90
4922;DHT22;16625;53.624;10.106;2023-02-28T01:34:50;1.30;99.90
4922;DHT22;16625;53.624;10.106;2023-02-28T01:37:17;1.40;99.90
4922;DHT22;16625;53.624;10.106;2023-02-28T01:39:44;1.20;1.00
4922;DHT22;16625;53.624;10.106;2023-02-28T01:42:10;1.20;1.00
4922;DHT22;16625;53.624;10.106;2023-02-28T01:45:03;1.20;1.00
4922;DHT22;16625;53.624;10.106;2023-02-28T01:47:35;1.20;1.00
4922;DHT22;16625;53.624;10.106;2023-02-28T01:50:07;1.90;1.00
4922;DHT22;16625;53.624;10.106;2023-02-28T01:52:36;1.20;1.00
4922;DHT22;16625;53.624;10.106;2023-02-28T01:55:07;1.20;1.00
4922;DHT22;16625;53.624;10.106;2023-02-28T01:57:38;1.20;1.00
4922;DHT22;16625;53.624;10.106;2023-02-28T02:00:09;1.20;1.00
4922;DHT22;16625;53.624;10.106;2023-02-28T02:02:40;1.20;1.00
4922;DHT22;16625;53.624;10.106;2023-02-28T02:05:10;1.40;37.00
4922;DHT22;16625;53.624;10.106;2023-02-28T02:07:39;1.30;68.90
4922;DHT22;16625;53.624;10.106;2023-02-28T02:10:12;1.30;90.90
4922;DHT22;16625;53.624;10.106;2023-02-28T02:15:54;1.30;99.90
4922;DHT22;16625;53.624;10.106;2023-02-28T02:18:29;1.40;99.90
4922;DHT22;16625;53.624;10.106;2023-02-28T02:21:22;1.30;99.90
4922;DHT22;16625;53.624;10.106;2023-02-28T02:27:14;1.30;51.10
4922;DHT22;16625;53.624;10.106;2023-02-28T02:30:12;1.50;1.00
4922;DHT22;16625;53.624;10.106;2023-02-28T02:32:53;1.20;1.00
4922;DHT22;16625;53.624;10.106;2023-02-28T02:35:26;1.20;65.00
4922;DHT22;16625;53.624;10.106;2023-02-28T02:38:01;1.20;1.00
4922;DHT22;16625;53.624;10.106;2023-02-28T02:40:33;1.20;1.00
4922;DHT22;16625;53.624;10.106;2023-02-28T02:43:07;1.20;1.00
4922;DHT22;16625;53.624;10.106;2023-02-28T02:45:39;1.00;1.00
4922;DHT22;16625;53.624;10.106;2023-02-28T02:48:11;0.90;1.00
4922;DHT22;16625;53.624;10.106;2023-02-28T02:50:44;0.80;1.00
4922;DHT22;16625;53.624;10.106;2023-02-28T02:53:14;0.60;99.90
4922;DHT22;16625;53.624;10.106;2023-02-28T02:55:46;1.20;99.90
4922;DHT22;16625;53.624;10.106;2023-02-28T02:58:20;0.30;99.90
4922;DHT22;16625;53.624;10.106;2023-02-28T03:00:52;0.10;99.90
4922;DHT22;16625;53.624;10.106;2023-02-28T03:03:20;0.00;1.00
4922;DHT22;16625;53.624;10.106;2023-02-28T03:05:57;-0.10;1.00
4922;DHT22;16625;53.624;10.106;2023-02-28T03:08:25;-0.30;82.80
4922;DHT22;16625;53.624;10.106;2023-02-28T03:10:56;-0.40;99.90
4922;DHT22;16625;53.624;10.106;2023-02-28T03:13:42;-0.50;99.90
4922;DHT22;16625;53.624;10.106;2023-02-28T03:16:23;-0.70;99.90
4922;DHT22;16625;53.624;10.106;2023-02-28T03:19:00;-0.40;1.00
4922;DHT22;16625;53.624;10.106;2023-02-28T03:21:35;-0.40;1.00
4922;DHT22;16625;53.624;10.106;2023-02-28T03:24:10;-0.60;1.00
4922;DHT22;16625;53.624;10.106;2023-02-28T03:26:43;-0.80;14.10
4922;DHT22;16625;53.624;10.106;2023-02-28T03:29:16;-0.80;38.60
4922;DHT22;16625;53.624;10.106;2023-02-28T03:31:49;-0.90;99.90
4922;DHT22;16625;53.624;10.106;2023-02-28T03:34:25;-1.00;99.90
4922;DHT22;16625;53.624;10.106;2023-02-28T03:36:57;-1.00;99.90
4922;DHT22;16625;53.624;10.106;2023-02-28T03:39:30;-0.90;99.90
4922;DHT22;16625;53.624;10.106;2023-02-28T03:42:02;-0.90;99.90
4922;DHT22;16625;53.624;10.106;2023-02-28T03:44:33;-1.10;1.00
4922;DHT22;16625;53.624;10.106;2023-02-28T03:47:04;-1.20;1.00
4922;DHT22;16625;53.624;10.106;2023-02-28T03:49:36;-1.00;1.00
4922;DHT22;16625;53.624;10.106;2023-02-28T03:52:08;-1.30;1.00
4922;DHT22;16625;53.624;10.106;2023-02-28T03:54:40;-1.30;1.00
4922;DHT22;16625;53.624;10.106;2023-02-28T03:57:12;-1.40;1.00
4922;DHT22;16625;53.624;10.106;2023-02-28T03:59:45;-1.50;1.00
4922;DHT22;16625;53.624;10.106;2023-02-28T04:02:12;-1.50;99.90
4922;DHT22;16625;53.624;10.106;2023-02-28T04:04:40;-1.40;99.90
4922;DHT22;16625;53.624;10.106;2023-02-28T04:07:15;-1.60;99.90
4922;DHT22;16625;53.624;10.106;2023-02-28T04:09:42;-1.50;1.00
4922;DHT22;16625;53.624;10.106;2023-02-28T04:12:09;-1.50;1.00
4922;DHT22;16625;53.624;10.106;2023-02-28T04:14:36;-1.50;1.00
4922;DHT22;16625;53.624;10.106;2023-02-28T04:17:03;-1.80;1.00
4922;DHT22;16625;53.624;10.106;2023-02-28T04:19:30;-1.80;99.90
4922;DHT22;16625;53.624;10.106;2023-02-28T04:21:57;-1.80;99.90
4922;DHT22;16625;53.624;10.106;2023-02-28T04:24:27;-1.80;99.90
4922;DHT22;16625;53.624;10.106;2023-02-28T04:26:55;-1.80;99.90
4922;DHT22;16625;53.624;10.106;2023-02-28T04:29:25;-1.90;99.90
4922;DHT22;16625;53.624;10.106;2023-02-28T04:31:52;-1.90;1.00
4922;DHT22;16625;53.624;10.106;2023-02-28T04:34:20;-1.90;1.00
4922;DHT22;16625;53.624;10.106;2023-02-28T04:36:49;-1.90;1.00
4922;DHT22;16625;53.624;10.106;2023-02-28T04:39:16;-1.90;48.20
4922;DHT22;16625;53.624;10.106;2023-02-28T04:41:45;-1.70;85.90
4922;DHT22;16625;53.624;10.106;2023-02-28T04:44:13;-2.00;99.90
4922;DHT22;16625;53.624;10.106;2023-02-28T04:46:41;-1.80;99.90
4922;DHT22;16625;53.624;10.106;2023-02-28T04:49:08;-2.10;99.90
4922;DHT22;16625;53.624;10.106;2023-02-28T04:51:38;-2.10;99.90
4922;DHT22;16625;53.624;10.106;2023-02-28T04:54:05;-1.80;99.90
4922;DHT22;16625;53.624;10.106;2023-02-28T04:56:33;-2.20;1.00
4922;DHT22;16625;53.624;10.106;2023-02-28T04:59:03;-2.20;1.00
4922;DHT22;16625;53.624;10.106;2023-02-28T05:01:32;-2.10;1.00
4922;DHT22;16625;53.624;10.106;2023-02-28T05:04:01;-2.00;1.00
4922;DHT22;16625;53.624;10.106;2023-02-28T05:06:31;-2.10;99.90
4922;DHT22;16625;53.624;10.106;2023-02-28T05:08:58;-2.10;99.90
4922;DHT22;16625;53.624;10.106;2023-02-28T05:11:26;-2.30;99.90
4922;DHT22;16625;53.624;10.106;2023-02-28T05:13:55;-2.20;1.00
4922;DHT22;16625;53.624;10.106;2023-02-28T05:16:23;-2.30;1.00
4922;DHT22;16625;53.624;10.106;2023-02-28T05:18:50;-2.30;1.00
4922;DHT22;16625;53.624;10.106;2023-02-28T05:21:28;-2.30;22.20
4922;DHT22;16625;53.624;10.106;2023-02-28T05:23:56;-2.30;89.10
4922;DHT22;16625;53.624;10.106;2023-02-28T05:26:25;-2.40;99.90
4922;DHT22;16625;53.624;10.106;2023-02-28T05:28:52;-2.40;99.90
4922;DHT22;16625;53.624;10.106;2023-02-28T05:31:20;-2.20;99.90
4922;DHT22;16625;53.624;10.106;2023-02-28T05:33:49;-2.50;99.90
4922;DHT22;16625;53.624;10.106;2023-02-28T05:36:16;-2.50;1.00
4922;DHT22;16625;53.624;10.106;2023-02-28T05:38:43;-2.30;1.00
4922;DHT22;16625;53.624;10.106;2023-02-28T05:41:18;-2.50;1.00
4922;DHT22;16625;53.624;10.106;2023-02-28T05:43:47;-2.10;1.00
4922;DHT22;16625;53.624;10.106;2023-02-28T05:46:15;-2.60;19.30
4922;DHT22;16625;53.624;10.106;2023-02-28T05:48:45;-2.40;40.60
4922;DHT22;16625;53.624;10.106;2023-02-28T05:51:15;-2.70;99.90
4922;DHT22;16625;53.624;10.106;2023-02-28T05:53:42;-2.30;99.90
4922;DHT22;16625;53.624;10.106;2023-02-28T05:56:09;-2.70;99.90
4922;DHT22;16625;53.624;10.106;2023-02-28T05:58:36;-2.20;99.90
4922;DHT22;16625;53.624;10.106;2023-02-28T06:01:22;-2.70;99.90
4922;DHT22;16625;53.624;10.106;2023-02-28T06:03:49;-2.70;99.90
4922;DHT22;16625;53.624;10.106;2023-02-28T06:06:18;-2.60;1.00
4922;DHT22;16625;53.624;10.106;2023-02-28T06:08:46;-2.80;1.00
4922;DHT22;16625;53.624;10.106;2023-02-28T06:11:13;-2.80;1.00
4922;DHT22;16625;53.624;10.106;2023-02-28T06:13:43;-2.80;1.00
4922;DHT22;16625;53.624;10.106;2023-02-28T06:16:11;-2.80;1.00
4922;DHT22;16625;53.624;10.106;2023-02-28T06:18:38;-2.80;1.00
4922;DHT22;16625;53.624;10.106;2023-02-28T06:21:05;-2.80;1.00
4922;DHT22;16625;53.624;10.106;2023-02-28T06:23:33;-2.80;1.00
4922;DHT22;16625;53.624;10.106;2023-02-28T06:26:00;-2.80;1.00
4922;DHT22;16625;53.624;10.106;2023-02-28T06:28:27;-2.80;82.20
4922;DHT22;16625;53.624;10.106;2023-02-28T06:30:54;-2.80;99.90
4922;DHT22;16625;53.624;10.106;2023-02-28T06:33:21;-2.80;99.90
4922;DHT22;16625;53.624;10.106;2023-02-28T06:35:50;-2.30;99.90
4922;DHT22;16625;53.624;10.106;2023-02-28T06:38:17;-1.80;99.90
4922;DHT22;16625;53.624;10.106;2023-02-28T06:40:53;-2.20;99.90
4922;DHT22;16625;53.624;10.106;2023-02-28T06:43:20;-2.70;99.90
4922;DHT22;16625;53.624;10.106;2023-02-28T06:45:47;-2.60;99.90
4922;DHT22;16625;53.624;10.106;2023-02-28T06:48:14;-2.10;99.90
4922;DHT22;16625;53.624;10.106;2023-02-28T06:50:41;-2.50;99.90
4922;DHT22;16625;53.624;10.106;2023-02-28T06:53:08;-2.50;99.90
4922;DHT22;16625;53.624;10.106;2023-02-28T06:55:38;-2.40;99.90
4922;DHT22;16625;53.624;10.106;2023-02-28T06:58:07;-2.40;99.90
4922;DHT22;16625;53.624;10.106;2023-02-28T07:00:40;-2.30;99.90
4922;DHT22;16625;53.624;10.106;2023-02-28T07:03:07;-2.20;99.90
4922;DHT22;16625;53.624;10.106;2023-02-28T07:05:34;-2.20;99.90
4922;DHT22;16625;53.624;10.106;2023-02-28T07:08:02;-2.10;99.90
4922;DHT22;16625;53.624;10.106;2023-02-28T07:10:29;-1.90;99.90
4922;DHT22;16625;53.624;10.106;2023-02-28T07:12:55;-1.70;99.90
4922;DHT22;16625;53.624;10.106;2023-02-28T07:15:24;-1.80;99.90
4922;DHT22;16625;53.624;10.106;2023-02-28T07:17:51;-1.60;99.90
4922;DHT22;16625;53.624;10.106;2023-02-28T07:20:18;-1.60;99.90
4922;DHT22;16625;53.624;10.106;2023-02-28T07:22:45;-1.60;99.90
4922;DHT22;16625;53.624;10.106;2023-02-28T07:25:17;-0.70;99.90
4922;DHT22;16625;53.624;10.106;2023-02-28T07:27:44;-1.30;99.90
4922;DHT22;16625;53.624;10.106;2023-02-28T07:30:12;-1.20;99.90
4922;DHT22;16625;53.624;10.106;2023-02-28T07:32:40;-1.10;99.90
4922;DHT22;16625;53.624;10.106;2023-02-28T07:35:08;-0.90;99.90
4922;DHT22;16625;53.624;10.106;2023-02-28T07:37:35;-0.90;99.90
4922;DHT22;16625;53.624;10.106;2023-02-28T07:40:03;-0.80;90.00
4922;DHT22;16625;53.624;10.106;2023-02-28T07:42:34;-0.70;11.20
4922;DHT22;16625;53.624;10.106;2023-02-28T07:45:01;-0.30;1.00
4922;DHT22;16625;53.624;10.106;2023-02-28T07:47:29;-0.50;1.00
4922;DHT22;16625;53.624;10.106;2023-02-28T07:49:58;-0.30;1.00
4922;DHT22;16625;53.624;10.106;2023-02-28T07:52:25;-0.30;99.90
4922;DHT22;16625;53.624;10.106;2023-02-28T07:54:52;-0.20;99.90
4922;DHT22;16625;53.624;10.106;2023-02-28T07:57:19;0.90;1.00
4922;DHT22;16625;53.624;10.106;2023-02-28T07:59:45;0.10;99.90
4922;DHT22;16625;53.624;10.106;2023-02-28T08:02:13;0.30;90.50
4922;DHT22;16625;53.624;10.106;2023-02-28T08:04:41;0.40;1.00
4922;DHT22;16625;53.624;10.106;2023-02-28T08:07:09;0.50;99.90
4922;DHT22;16625;53.624;10.106;2023-02-28T08:09:39;0.70;35.80
4922;DHT22;16625;53.624;10.106;2023-02-28T08:12:32;1.20;1.00
4922;DHT22;16625;53.624;10.106;2023-02-28T08:15:19;1.10;99.90
4922;DHT22;16625;53.624;10.106;2023-02-28T08:17:46;1.10;1.00
4922;DHT22;16625;53.624;10.106;2023-02-28T08:20:18;2.10;99.90
4922;DHT22;16625;53.624;10.106;2023-02-28T08:22:58;1.40;99.90
4922;DHT22;16625;53.624;10.106;2023-02-28T08:25:25;1.60;1.00
4922;DHT22;16625;53.624;10.106;2023-02-28T08:27:52;1.90;99.90
4922;DHT22;16625;53.624;10.106;2023-02-28T08:30:23;1.90;89.70
4922;DHT22;16625;53.624;10.106;2023-02-28T08:32:53;2.30;1.00
4922;DHT22;16625;53.624;10.106;2023-02-28T08:35:24;2.10;99.90
4922;DHT22;16625;53.624;10.106;2023-02-28T08:37:53;2.40;84.50
4922;DHT22;16625;53.624;10.106;2023-02-28T08:40:31;2.10;1.00
4922;DHT22;16625;53.624;10.106;2023-02-28T08:43:00;2.70;99.90
4922;DHT22;16625;53.624;10.106;2023-02-28T08:45:31;2.60;99.90
4922;DHT22;16625;53.624;10.106;2023-02-28T08:47:58;2.70;41.60
4922;DHT22;16625;53.624;10.106;2023-02-28T08:50:26;2.90;37.50
4922;DHT22;16625;53.624;10.106;2023-02-28T08:52:52;2.90;1.00
4922;DHT22;16625;53.624;10.106;2023-02-28T08:55:19;3.90;99.90
4922;DHT22;16625;53.624;10.106;2023-02-28T08:57:48;3.30;99.90
4922;DHT22;16625;53.624;10.106;2023-02-28T09:00:15;3.40;61.00
4922;DHT22;16625;53.624;10.106;2023-02-28T09:02:42;3.20;1.00
4922;DHT22;16625;53.624;10.106;2023-02-28T09:05:09;3.40;1.00
4922;DHT22;16625;53.624;10.106;2023-02-28T09:10:58;3.60;99.90
4922;DHT22;16625;53.624;10.106;2023-02-28T09:13:39;3.80;99.90
4922;DHT22;16625;53.624;10.106;2023-02-28T09:16:21;3.80;99.90
4922;DHT22;16625;53.624;10.106;2023-02-28T09:18:55;4.10;1.00
4922;DHT22;16625;53.624;10.106;2023-02-28T09:21:23;4.40;99.90
4922;DHT22;16625;53.624;10.106;2023-02-28T09:23:50;4.10;99.90
4922;DHT22;16625;53.624;10.106;2023-02-28T09:26:19;4.40;99.90
4922;DHT22;16625;53.624;10.106;2023-02-28T09:28:52;4.30;99.90
4922;DHT22;16625;53.624;10.106;2023-02-28T09:31:22;4.40;99.90
4922;DHT22;16625;53.624;10.106;2023-02-28T09:33:50;4.60;1.00
4922;DHT22;16625;53.624;10.106;2023-02-28T09:36:18;4.60;1.00
4922;DHT22;16625;53.624;10.106;2023-02-28T09:38:46;4.50;1.00
4922;DHT22;16625;53.624;10.106;2023-02-28T09:41:15;4.70;1.00
4922;DHT22;16625;53.624;10.106;2023-02-28T09:43:45;4.90;1.00
4922;DHT22;16625;53.624;10.106;2023-02-28T09:46:31;5.00;1.00
4922;DHT22;16625;53.624;10.106;2023-02-28T09:49:00;4.90;99.90
4922;DHT22;16625;53.624;10.106;2023-02-28T09:51:49;5.20;99.90
4922;DHT22;16625;53.624;10.106;2023-02-28T09:54:23;5.30;99.90
4922;DHT22;16625;53.624;10.106;2023-02-28T09:56:56;5.10;99.90
4922;DHT22;16625;53.624;10.106;2023-02-28T09:59:40;5.40;99.90
4922;DHT22;16625;53.624;10.106;2023-02-28T10:05:22;5.30;99.90
4922;DHT22;16625;53.624;10.106;2023-02-28T10:07:59;5.70;99.90
4922;DHT22;16625;53.624;10.106;2023-02-28T10:10:34;5.50;99.90
4922;DHT22;16625;53.624;10.106;2023-02-28T10:13:17;5.50;99.90
4922;DHT22;16625;53.624;10.106;2023-02-28T10:15:49;5.60;96.60
4922;DHT22;16625;53.624;10.106;2023-02-28T10:18:24;5.50;54.30
4922;DHT22;16625;53.624;10.106;2023-02-28T10:20:53;5.50;42.50
4922;DHT22;16625;53.624;10.106;2023-02-28T10:23:31;5.60;3.90
4922;DHT22;16625;53.624;10.106;2023-02-28T10:26:12;5.60;24.30
4922;DHT22;16625;53.624;10.106;2023-02-28T10:28:52;5.80;1.00
4922;DHT22;16625;53.624;10.106;2023-02-28T10:31:30;5.80;20.80
4922;DHT22;16625;53.624;10.106;2023-02-28T10:34:24;5.90;1.00
4922;DHT22;16625;53.624;10.106;2023-02-28T10:37:35;6.00;1.00
4922;DHT22;16625;53.624;10.106;2023-02-28T10:40:32;6.10;1.00
4922;DHT22;16625;53.624;10.106;2023-02-28T10:43:04;6.00;1.00
4922;DHT22;16625;53.624;10.106;2023-02-28T10:46:57;6.30;1.00
4922;DHT22;16625;53.624;10.106;2023-02-28T10:49:03;6.10;1.00
4922;DHT22;16625;53.624;10.106;2023-02-28T10:51:41;6.20;1.00
4922;DHT22;16625;53.624;10.106;2023-02-28T10:54:19;6.20;1.00
4922;DHT22;16625;53.624;10.106;2023-02-28T10:57:11;6.50;1.00
4922;DHT22;16625;53.624;10.106;2023-02-28T10:59:45;6.50;1.00
4922;DHT22;16625;53.624;10.106;2023-02-28T11:02:31;6.60;1.00
4922;DHT22;16625;53.624;10.106;2023-02-28T11:04:59;6.70;1.00
4922;DHT22;16625;53.624;10.106;2023-02-28T11:07:30;6.70;1.00
4922;DHT22;16625;53.624;10.106;2023-02-28T11:09:59;6.50;1.00
4922;DHT22;16625;53.624;10.106;2023-02-28T11:12:32;6.60;1.00
4922;DHT22;16625;53.624;10.106;2023-02-28T11:15:03;6.80;1.00
4922;DHT22;16625;53.624;10.106;2023-02-28T11:17:31;6.90;1.00
4922;DHT22;16625;53.624;10.106;2023-02-28T11:20:01;6.90;1.00
4922;DHT22;16625;53.624;10.106;2023-02-28T11:22:45;6.90;1.00
4922;DHT22;16625;53.624;10.106;2023-02-28T11:25:22;6.90;1.00
4922;DHT22;16625;53.624;10.106;2023-02-28T11:27:54;6.70;1.00
4922;DHT22;16625;53.624;10.106;2023-02-28T11:30:27;6.80;1.00
4922;DHT22;16625;53.624;10.106;2023-02-28T11:32:54;6.80;1.00
4922;DHT22;16625;53.624;10.106;2023-02-28T11:35:26;6.90;1.00
4922;DHT22;16625;53.624;10.106;2023-02-28T11:37:55;6.70;1.00
4922;DHT22;16625;53.624;10.106;2023-02-28T11:40:30;6.80;1.00
4922;DHT22;16625;53.624;10.106;2023-02-28T11:43:20;6.90;1.00
4922;DHT22;16625;53.624;10.106;2023-02-28T11:46:04;7.10;1.00
4922;DHT22;16625;53.624;10.106;2023-02-28T11:48:42;6.90;1.00
4922;DHT22;16625;53.624;10.106;2023-02-28T11:51:17;7.00;1.00
4922;DHT22;16625;53.624;10.106;2023-02-28T11:56:44;7.10;1.00
4922;DHT22;16625;53.624;10.106;2023-02-28T12:02:24;7.10;1.00
4922;DHT22;16625;53.624;10.106;2023-02-28T12:05:04;7.10;1.00
4922;DHT22;16625;53.624;10.106;2023-02-28T12:07:44;7.20;1.00
4922;DHT22;16625;53.624;10.106;2023-02-28T12:10:21;7.10;1.00
4922;DHT22;16625;53.624;10.106;2023-02-28T12:12:58;7.60;1.00
4922;DHT22;16625;53.624;10.106;2023-02-28T12:15:57;7.40;1.00
4922;DHT22;16625;53.624;10.106;2023-02-28T12:18:51;7.40;1.00
4922;DHT22;16625;53.624;10.106;2023-02-28T12:21:26;7.40;1.00
4922;DHT22;16625;53.624;10.106;2023-02-28T12:24:03;7.60;99.90
4922;DHT22;16625;53.624;10.106;2023-02-28T12:26:39;7.40;99.90
4922;DHT22;16625;53.624;10.106;2023-02-28T12:33:08;7.40;99.90
4922;DHT22;16625;53.624;10.106;2023-02-28T12:35:46;7.30;99.90
4922;DHT22;16625;53.624;10.106;2023-02-28T12:38:18;7.40;99.90
4922;DHT22;16625;53.624;10.106;2023-02-28T12:40:50;7.50;99.90
4922;DHT22;16625;53.624;10.106;2023-02-28T12:43:29;8.20;99.90
4922;DHT22;16625;53.624;10.106;2023-02-28T12:46:07;7.60;99.90
4922;DHT22;16625;53.624;10.106;2023-02-28T12:48:46;7.80;99.90
4922;DHT22;16625;53.624;10.106;2023-02-28T12:51:18;7.90;99.90
4922;DHT22;16625;53.624;10.106;2023-02-28T12:54:00;7.60;99.90
4922;DHT22;16625;53.624;10.106;2023-02-28T12:56:42;8.00;99.90
4922;DHT22;16625;53.624;10.106;2023-02-28T12:59:25;7.60;99.90
4922;DHT22;16625;53.624;10.106;2023-02-28T13:02:09;7.90;99.90
4922;DHT22;16625;53.624;10.106;2023-02-28T13:05:00;7.60;99.90
4922;DHT22;16625;53.624;10.106;2023-02-28T13:10:42;7.50;99.90
4922;DHT22;16625;53.624;10.106;2023-02-28T13:13:17;7.70;99.90
4922;DHT22;16625;53.624;10.106;2023-02-28T13:16:05;7.70;99.90
4922;DHT22;16625;53.624;10.106;2023-02-28T13:18:38;7.70;99.90
4922;DHT22;16625;53.624;10.106;2023-02-28T13:21:09;7.70;99.90
4922;DHT22;16625;53.624;10.106;2023-02-28T13:23:57;7.70;99.90
4922;DHT22;16625;53.624;10.106;2023-02-28T13:29:31;7.70;99.90
4922;DHT22;16625;53.624;10.106;2023-02-28T13:35:42;7.70;99.90
4922;DHT22;16625;53.624;10.106;2023-02-28T13:38:23;7.70;99.90
4922;DHT22;16625;53.624;10.106;2023-02-28T13:40:50;7.80;99.90
4922;DHT22;16625;53.624;10.106;2023-02-28T13:43:20;7.70;99.90
4922;DHT22;16625;53.624;10.106;2023-02-28T13:46:10;7.60;99.90
4922;DHT22;16625;53.624;10.106;2023-02-28T13:48:39;7.70;99.90
4922;DHT22;16625;53.624;10.106;2023-02-28T13:51:38;7.60;99.90
4922;DHT22;16625;53.624;10.106;2023-02-28T13:54:28;7.60;99.90
4922;DHT22;16625;53.624;10.106;2023-02-28T13:57:11;7.60;99.90
4922;DHT22;16625;53.624;10.106;2023-02-28T13:59:50;7.70;99.90
4922;DHT22;16625;53.624;10.106;2023-02-28T14:02:40;7.60;99.90
4922;DHT22;16625;53.624;10.106;2023-02-28T14:05:13;7.60;99.90
4922;DHT22;16625;53.624;10.106;2023-02-28T14:07:45;7.70;99.90
4922;DHT22;16625;53.624;10.106;2023-02-28T14:10:24;7.90;99.90
4922;DHT22;16625;53.624;10.106;2023-02-28T14:13:01;7.60;99.90
4922;DHT22;16625;53.624;10.106;2023-02-28T14:15:41;7.60;99.90
4922;DHT22;16625;53.624;10.106;2023-02-28T14:18:21;7.50;99.90
4922;DHT22;16625;53.624;10.106;2023-02-28T14:20:51;7.50;99.90
4922;DHT22;16625;53.624;10.106;2023-02-28T14:23:32;8.00;99.90
4922;DHT22;16625;53.624;10.106;2023-02-28T14:26:05;7.50;99.90
4922;DHT22;16625;53.624;10.106;2023-02-28T14:28:47;7.50;99.90
4922;DHT22;16625;53.624;10.106;2023-02-28T14:31:21;7.40;99.90
4922;DHT22;16625;53.624;10.106;2023-02-28T14:34:17;8.40;99.90
4922;DHT22;16625;53.624;10.106;2023-02-28T14:36:53;7.40;99.90
4922;DHT22;16625;53.624;10.106;2023-02-28T14:39:25;7.30;99.90
4922;DHT22;16625;53.624;10.106;2023-02-28T14:41:59;7.40;99.90
4922;DHT22;16625;53.624;10.106;2023-02-28T14:44:30;7.30;99.90
4922;DHT22;16625;53.624;10.106;2023-02-28T14:47:02;7.20;99.90
4922;DHT22;16625;53.624;10.106;2023-02-28T14:49:35;7.30;99.90
4922;DHT22;16625;53.624;10.106;2023-02-28T14:52:06;7.20;99.90
4922;DHT22;16625;53.624;10.106;2023-02-28T14:54:39;7.20;99.90
4922;DHT22;16625;53.624;10.106;2023-02-28T14:57:21;7.30;99.90
4922;DHT22;16625;53.624;10.106;2023-02-28T14:59:57;7.00;99.90
4922;DHT22;16625;53.624;10.106;2023-02-28T15:02:26;7.10;99.90
4922;DHT22;16625;53.624;10.106;2023-02-28T15:04:58;7.00;99.90
4922;DHT22;16625;53.624;10.106;2023-02-28T15:07:26;7.00;99.90
4922;DHT22;16625;53.624;10.106;2023-02-28T15:10:16;7.00;99.90
4922;DHT22;16625;53.624;10.106;2023-02-28T15:12:51;6.90;99.90
4922;DHT22;16625;53.624;10.106;2023-02-28T15:15:20;6.80;99.90
4922;DHT22;16625;53.624;10.106;2023-02-28T15:17:51;6.80;99.90
4922;DHT22;16625;53.624;10.106;2023-02-28T15:20:20;6.80;99.90
4922;DHT22;16625;53.624;10.106;2023-02-28T15:22:51;6.90;99.90
4922;DHT22;16625;53.624;10.106;2023-02-28T15:25:21;7.00;99.90
4922;DHT22;16625;53.624;10.106;2023-02-28T15:27:50;6.50;99.90
4922;DHT22;16625;53.624;10.106;2023-02-28T15:30:20;7.20;99.90
4922;DHT22;16625;53.624;10.106;2023-02-28T15:33:03;6.40;99.90
4922;DHT22;16625;53.624;10.106;2023-02-28T15:35:33;6.40;99.90
4922;DHT22;16625;53.624;10.106;2023-02-28T15:38:01;6.30;99.90
4922;DHT22;16625;53.624;10.106;2023-02-28T15:40:37;7.40;99.90
4922;DHT22;16625;53.624;10.106;2023-02-28T15:43:07;6.10;99.90
4922;DHT22;16625;53.624;10.106;2023-02-28T15:45:44;6.30;99.90
4922;DHT22;16625;53.624;10.106;2023-02-28T15:48:16;6.20;99.90
4922;DHT22;16625;53.624;10.106;2023-02-28T15:50:46;6.00;99.90
4922;DHT22;16625;53.624;10.106;2023-02-28T15:53:16;5.70;99.90
4922;DHT22;16625;53.624;10.106;2023-02-28T15:55:55;5.60;99.90
4922;DHT22;16625;53.624;10.106;2023-02-28T15:58:24;5.70;99.90
4922;DHT22;16625;53.624;10.106;2023-02-28T16:01:24;5.80;99.90
4922;DHT22;16625;53.624;10.106;2023-02-28T16:03:55;6.50;99.90
4922;DHT22;16625;53.624;10.106;2023-02-28T16:06:37;5.20;99.90
4922;DHT22;16625;53.624;10.106;2023-02-28T16:09:10;5.20;99.90
4922;DHT22;16625;53.624;10.106;2023-02-28T16:11:41;5.20;99.90
4922;DHT22;16625;53.624;10.106;2023-02-28T16:14:15;5.10;99.90
4922;DHT22;16625;53.624;10.106;2023-02-28T16:16:45;4.90;99.90
4922;DHT22;16625;53.624;10.106;2023-02-28T16:19:12;5.20;99.90
4922;DHT22;16625;53.624;10.106;2023-02-28T16:21:39;4.70;99.90
4922;DHT22;16625;53.624;10.106;2023-02-28T16:24:07;5.00;99.90
4922;DHT22;16625;53.624;10.106;2023-02-28T16:26:34;4.60;99.90
4922;DHT22;16625;53.624;10.106;2023-02-28T16:29:04;5.00;99.90
4922;DHT22;16625;53.624;10.106;2023-02-28T16:31:35;4.40;99.90
4922;DHT22;16625;53.624;10.106;2023-02-28T16:34:04;3.90;99.90
4922;DHT22;16625;53.624;10.106;2023-02-28T16:36:31;4.80;99.90
4922;DHT22;16625;53.624;10.106;2023-02-28T16:38:58;4.50;99.90
4922;DHT22;16625;53.624;10.106;2023-02-28T16:41:28;4.40;99.90
4922;DHT22;16625;53.624;10.106;2023-02-28T16:43:56;3.80;99.90
4922;DHT22;16625;53.624;10.106;2023-02-28T16:46:30;3.60;99.90
4922;DHT22;16625;53.624;10.106;2023-02-28T16:48:59;3.60;99.90
4922;DHT22;16625;53.624;10.106;2023-02-28T16:51:26;4.00;99.90
4922;DHT22;16625;53.624;10.106;2023-02-28T16:53:54;3.10;99.90